Time;durP1;ratioP1;P1;durP2;ratioP2;P2;SDS_P1;SDS_P2;PMS_P1;PMS_P2;Temp;Humidity;BMP_temperature;BMP_pressure;BME280_temperature;BME280_humidity;BME280_pressure;Samples;Min_cycle;Max_cycle;Signal;HPM_P1;HPM_P2
2021/08/04 00:00:40;;;;;;;7.72;1.77;;;10.30;99.90;;;8.69;100.00;101512.31;4928098;28;20059;-76
2021/08/04 00:03:06;;;;;;;3.08;1.60;;;10.20;99.90;;;8.66;100.00;101509.78;4953492;28;21092;-76
2021/08/04 00:05:32;;;;;;;3.72;1.65;;;10.20;99.90;;;8.67;100.00;101519.38;4933399;28;20074;-76
2021/08/04 00:07:58;;;;;;;3.08;1.50;;;10.20;99.90;;;8.59;100.00;101502.94;4925282;28;20060;-76
2021/08/04 00:10:24;;;;;;;4.35;1.38;;;10.10;99.90;;;8.47;100.00;101498.03;4943176;28;20073;-76
2021/08/04 00:12:50;;;;;;;2.55;1.73;;;10.00;99.90;;;8.40;100.00;101492.94;4910441;28;21181;-76
2021/08/04 00:15:17;;;;;;;2.83;1.60;;;10.00;99.90;;;8.43;100.00;101512.13;4960049;28;20054;-75
2021/08/04 00:18:07;;;;;;;2.58;1.58;;;9.90;99.90;;;8.43;100.00;101549.72;5059317;27;20423;-76
2021/08/04 00:20:33;;;;;;;3.25;1.60;;;10.10;99.90;;;8.48;100.00;101568.00;5036101;28;20057;-76
2021/08/04 00:23:01;;;;;;;2.00;1.58;;;10.00;99.90;;;8.47;100.00;101592.53;5037687;28;20063;-75
2021/08/04 00:25:28;;;;;;;5.30;2.00;;;10.00;99.90;;;8.48;100.00;101596.84;5037430;28;20047;-76
2021/08/04 00:27:54;;;;;;;2.50;1.80;;;10.00;99.90;;;8.48;100.00;101613.47;5015009;28;20067;-76
2021/08/04 00:30:21;;;;;;;4.47;1.88;;;10.00;99.90;;;8.50;100.00;101640.53;5029992;28;20064;-76
2021/08/04 00:32:47;;;;;;;4.57;1.48;;;10.20;99.90;;;8.79;100.00;101687.13;5014622;28;20052;-76
2021/08/04 00:35:13;;;;;;;8.57;2.05;;;10.20;99.90;;;8.83;100.00;101696.66;4999538;28;20069;-76
2021/08/04 00:37:39;;;;;;;5.43;2.28;;;10.30;99.90;;;8.85;100.00;101715.00;4980353;28;20158;-76
2021/08/04 00:40:07;;;;;;;3.60;1.70;;;10.20;99.90;;;8.71;100.00;101732.84;4982492;28;20548;-76
2021/08/04 00:42:33;;;;;;;3.33;2.03;;;10.10;99.90;;;8.52;100.00;101738.50;4978706;28;20062;-76
2021/08/04 00:44:59;;;;;;;2.53;1.60;;;9.90;99.90;;;8.32;100.00;101736.28;5018460;28;20057;-76
2021/08/04 00:47:25;;;;;;;2.58;1.65;;;9.80;99.90;;;8.16;100.00;101864.28;5014284;28;21035;-76
2021/08/04 00:49:51;;;;;;;11.25;1.70;;;9.80;99.90;;;8.13;100.00;101776.91;5016120;28;20166;-76
2021/08/04 00:52:17;;;;;;;2.17;1.58;;;9.70;99.90;;;8.05;100.00;101810.28;5000205;28;20062;-76
2021/08/04 00:54:43;;;;;;;5.00;1.38;;;9.50;99.90;;;7.86;100.00;101801.88;5018250;28;20521;-76
2021/08/04 00:57:09;;;;;;;2.85;1.70;;;9.40;99.90;;;7.83;100.00;101857.88;4997919;28;20072;-76
2021/08/04 00:59:36;;;;;;;4.28;1.60;;;9.40;99.90;;;7.89;100.00;101831.53;4999785;28;20081;-76
2021/08/04 01:02:37;;;;;;;3.75;1.80;;;9.50;99.90;;;7.94;100.00;101855.06;5016552;28;20048;-76
2021/08/04 01:05:26;;;;;;;3.42;1.63;;;9.50;99.90;;;7.99;100.00;101861.06;5029287;28;20147;-76
2021/08/04 01:08:08;;;;;;;3.85;1.92;;;9.50;99.90;;;8.04;100.00;101858.41;5011633;28;20425;-76
2021/08/04 01:10:48;;;;;;;4.15;2.15;;;9.60;99.90;;;8.04;100.00;101882.00;5047275;28;20146;-76
2021/08/04 01:13:23;;;;;;;3.65;1.98;;;9.60;99.90;;;8.02;100.00;101896.00;5029833;28;20423;-76
2021/08/04 01:16:11;;;;;;;3.33;2.03;;;9.50;99.90;;;8.09;100.00;101909.88;5011680;28;20064;-76
2021/08/04 01:18:56;;;;;;;7.00;2.42;;;9.60;99.90;;;8.08;100.00;101930.88;5026115;28;20087;-76
2021/08/04 01:21:34;;;;;;;4.47;1.77;;;9.60;99.90;;;8.04;100.00;101921.34;5014999;28;20077;-76
2021/08/04 01:24:33;;;;;;;2.25;1.50;;;9.50;99.90;;;7.97;100.00;101925.84;5015325;28;20058;-76
2021/08/04 01:27:00;;;;;;;4.25;2.13;;;9.50;99.90;;;8.21;100.00;101971.78;5002020;28;20539;-76
2021/08/04 01:29:26;;;;;;;2.80;2.10;;;9.70;99.90;;;8.25;100.00;101975.19;5001509;28;20540;-76
2021/08/04 01:32:01;;;;;;;4.00;1.95;;;9.70;99.90;;;8.28;100.00;101975.16;4981728;28;20058;-76
2021/08/04 01:34:30;;;;;;;5.85;2.60;;;9.70;99.90;;;8.24;100.00;102024.19;5001613;28;20072;-76
2021/08/04 01:36:57;;;;;;;6.60;2.15;;;9.70;99.90;;;8.11;100.00;102013.03;4998821;28;20089;-76
2021/08/04 01:39:24;;;;;;;2.55;1.73;;;9.60;99.90;;;7.98;100.00;102024.59;4980930;28;20073;-76
2021/08/04 01:41:53;;;;;;;5.50;1.70;;;9.50;99.90;;;7.87;100.00;102035.25;4984251;28;20068;-76
2021/08/04 01:44:20;;;;;;;4.18;1.98;;;9.40;99.90;;;7.86;100.00;102062.38;4997546;28;20067;-76
2021/08/04 01:46:47;;;;;;;3.92;1.90;;;9.50;99.90;;;7.92;100.00;102151.44;4967354;28;20116;-76
2021/08/04 01:49:15;;;;;;;6.32;2.25;;;9.60;99.90;;;7.91;100.00;102190.81;4953785;28;20065;-76
2021/08/04 01:51:47;;;;;;;3.58;1.95;;;9.50;99.90;;;7.89;100.00;102090.31;5014624;28;20334;-76
2021/08/04 01:54:15;;;;;;;4.90;2.28;;;9.50;99.90;;;7.88;100.00;102102.53;5016015;28;20076;-76
2021/08/04 01:56:42;;;;;;;4.18;2.00;;;9.40;99.90;;;7.75;100.00;102106.22;5050194;28;20048;-76
2021/08/04 01:59:08;;;;;;;3.15;2.03;;;9.20;99.90;;;7.65;100.00;102123.81;4990642;28;20515;-76
2021/08/04 02:01:38;;;;;;;4.10;2.20;;;9.20;99.90;;;7.68;100.00;102128.16;5032816;28;20125;-76
2021/08/04 02:04:05;;;;;;;3.78;1.77;;;9.30;99.90;;;7.86;100.00;102163.75;5025315;28;20524;-76
2021/08/04 02:06:38;;;;;;;3.70;2.00;;;9.30;99.90;;;7.80;100.00;102177.84;4998466;28;20073;-76
2021/08/04 02:09:11;;;;;;;3.05;2.13;;;9.30;99.90;;;7.79;100.00;102191.81;5001603;28;20249;-76
2021/08/04 02:12:06;;;;;;;3.83;2.47;;;9.30;99.90;;;7.83;100.00;102195.28;5033484;28;20055;-76
2021/08/04 02:15:08;;;;;;;3.40;2.38;;;9.20;99.90;;;7.83;100.00;102214.50;4997537;28;20049;-76
2021/08/04 02:17:45;;;;;;;4.82;2.35;;;9.20;99.90;;;7.72;100.00;102227.72;5012305;28;20084;-76
2021/08/04 02:20:28;;;;;;;6.20;2.40;;;9.20;99.90;;;7.60;100.00;102217.38;5000402;28;20061;-76
2021/08/04 02:23:20;;;;;;;5.65;1.70;;;9.00;99.90;;;7.33;100.00;102206.28;4998267;28;20057;-76
2021/08/04 02:26:05;;;;;;;2.85;1.80;;;8.80;99.90;;;7.14;100.00;102204.72;5016266;28;20068;-76
2021/08/04 02:28:36;;;;;;;4.47;1.63;;;8.60;99.90;;;7.01;100.00;102354.97;5022762;28;20109;-76
2021/08/04 02:31:05;;;;;;;10.65;1.85;;;8.60;99.90;;;7.04;100.00;102332.28;5025034;28;20470;-76
2021/08/04 02:33:31;;;;;;;4.45;1.90;;;8.60;99.90;;;7.09;100.00;102244.03;5001982;28;20050;-76
2021/08/04 02:35:59;;;;;;;5.03;2.08;;;8.60;99.90;;;7.11;100.00;102234.44;4999582;28;20074;-76
2021/08/04 02:38:25;;;;;;;4.05;1.92;;;8.60;99.90;;;7.04;100.00;102261.56;4997332;28;20063;-76
2021/08/04 02:40:52;;;;;;;7.00;1.90;;;8.50;99.90;;;6.96;100.00;102243.25;4957107;28;20521;-76
2021/08/04 02:43:22;;;;;;;4.00;2.00;;;8.50;99.90;;;6.95;100.00;102254.63;4966451;28;20062;-76
2021/08/04 02:45:50;;;;;;;7.65;2.10;;;8.50;99.90;;;6.94;100.00;102294.78;5013702;28;20101;-76
2021/08/04 02:48:19;;;;;;;3.65;2.00;;;8.50;99.90;;;6.81;100.00;102284.41;5034498;28;20062;-76
2021/08/04 02:50:54;;;;;;;4.43;1.92;;;8.40;99.90;;;6.78;100.00;102287.88;5033420;28;20094;-76
2021/08/04 02:53:20;;;;;;;5.22;1.63;;;8.60;99.90;;;6.95;100.00;102290.41;4965454;28;20064;-76
2021/08/04 02:55:51;;;;;;;4.75;2.15;;;8.60;99.90;;;7.00;100.00;102422.22;4997057;28;20045;-76
2021/08/04 02:58:18;;;;;;;3.67;2.22;;;8.60;99.90;;;6.98;100.00;102463.25;4981696;28;20061;-76
2021/08/04 03:00:45;;;;;;;3.17;2.00;;;8.50;99.90;;;6.96;100.00;102328.81;5013235;28;20054;-76
2021/08/04 03:03:11;;;;;;;3.28;2.28;;;8.60;99.90;;;6.95;100.00;102366.34;5014998;28;20129;-76
2021/08/04 03:05:37;;;;;;;5.57;2.33;;;8.60;99.90;;;6.97;100.00;102361.97;4980941;28;20127;-76
2021/08/04 03:08:04;;;;;;;5.20;2.30;;;8.60;99.90;;;6.95;100.00;102392.53;4965022;28;20428;-76
2021/08/04 03:10:30;;;;;;;5.60;2.50;;;8.60;99.90;;;6.92;100.00;102374.25;4982433;28;20063;-76
2021/08/04 03:12:56;;;;;;;11.65;2.25;;;8.50;99.90;;;6.92;100.00;102369.00;4981854;28;20069;-76
2021/08/04 03:15:22;;;;;;;4.50;2.00;;;8.60;99.90;;;6.91;100.00;102396.06;4989893;28;20138;-76
2021/08/04 03:17:48;;;;;;;2.75;1.90;;;8.50;99.90;;;6.92;100.00;102401.28;4964548;28;20064;-76
2021/08/04 03:20:14;;;;;;;2.72;2.08;;;8.50;99.90;;;6.97;100.00;102404.75;4965014;28;20124;-76
2021/08/04 03:22:49;;;;;;;4.85;2.35;;;8.60;99.90;;;7.05;100.00;102430.06;5015348;28;20086;-75
2021/08/04 03:25:18;;;;;;;6.07;2.33;;;8.70;99.90;;;7.11;100.00;102435.25;5011807;28;20628;-76
2021/08/04 03:27:45;;;;;;;5.78;2.50;;;8.80;99.90;;;7.16;100.00;102417.75;5011155;28;20073;-76
2021/08/04 03:30:12;;;;;;;3.10;2.40;;;8.80;99.90;;;7.15;100.00;102380.22;5030688;28;20054;-76
2021/08/04 03:32:39;;;;;;;3.50;2.17;;;8.70;99.90;;;7.06;100.00;102405.59;5033480;28;20542;-76
2021/08/04 03:35:07;;;;;;;7.30;2.78;;;8.70;99.90;;;7.08;100.00;102543.53;4998247;28;20141;-77
2021/08/04 03:37:33;;;;;;;5.78;2.38;;;8.70;99.90;;;7.16;100.00;102551.38;4996412;28;20095;-75
2021/08/04 03:40:00;;;;;;;4.10;2.95;;;8.80;99.90;;;7.31;100.00;102495.41;4979649;28;20061;-75
2021/08/04 03:42:26;;;;;;;5.65;2.95;;;8.90;99.90;;;7.42;100.00;102574.00;4980899;28;20061;-76
2021/08/04 03:44:52;;;;;;;5.50;3.33;;;8.90;99.90;;;7.48;100.00;102529.41;4979472;28;20069;-76
2021/08/04 03:47:18;;;;;;;6.90;2.90;;;9.00;99.90;;;7.61;100.00;102515.34;4999768;28;20068;-76
2021/08/04 03:49:44;;;;;;;7.75;3.30;;;9.20;99.90;;;7.68;100.00;102539.78;4979583;28;20089;-76
2021/08/04 03:52:11;;;;;;;6.82;2.80;;;9.20;99.90;;;7.71;100.00;102597.44;4981185;28;20555;-76
2021/08/04 03:54:37;;;;;;;5.97;2.80;;;9.20;99.90;;;7.74;100.00;102581.72;5016298;28;20071;-76
2021/08/04 03:57:04;;;;;;;9.05;2.97;;;9.30;99.90;;;7.81;100.00;102607.03;4979538;28;20141;-76
2021/08/04 03:59:30;;;;;;;5.25;3.10;;;9.40;99.90;;;7.86;100.00;102636.75;5006461;28;20151;-77
2021/08/04 04:01:56;;;;;;;5.32;2.95;;;9.40;99.90;;;7.86;100.00;102631.50;4979823;28;20073;-75
2021/08/04 04:04:22;;;;;;;3.85;2.38;;;9.40;99.90;;;7.92;100.00;102634.06;4981739;28;20062;-76
2021/08/04 04:06:48;;;;;;;10.05;2.50;;;9.40;99.90;;;7.96;100.00;102688.25;4980550;28;20073;-77
2021/08/04 04:09:14;;;;;;;3.22;2.40;;;9.50;99.90;;;8.00;100.00;102757.34;4964265;28;20526;-76
2021/08/04 04:11:40;;;;;;;4.70;2.60;;;9.50;99.90;;;8.01;100.00;102740.69;5013556;28;20195;-76
2021/08/04 04:14:06;;;;;;;5.80;2.50;;;9.60;99.90;;;8.06;100.00;102691.72;5010250;28;20061;-76
2021/08/04 04:16:32;;;;;;;8.75;2.17;;;9.70;99.90;;;8.36;100.00;102701.19;4979633;28;20080;-76
2021/08/04 04:18:58;;;;;;;3.60;2.17;;;10.60;99.90;;;9.30;100.00;102762.72;5014629;28;20157;-76
2021/08/04 04:21:24;;;;;;;3.15;1.75;;;11.70;99.90;;;10.17;100.00;102822.34;4964433;28;20069;-76
2021/08/04 04:23:50;;;;;;;5.75;1.77;;;12.90;99.90;;;11.17;100.00;102797.28;4957848;28;20067;-76
2021/08/04 04:26:15;;;;;;;1.42;1.15;;;14.20;99.90;;;12.26;97.35;102886.88;4979821;28;20073;-76
2021/08/04 04:28:42;;;;;;;1.80;1.17;;;15.40;99.90;;;13.30;89.01;102900.59;4980490;28;20512;-76
2021/08/04 04:31:08;;;;;;;2.05;0.88;;;16.40;99.90;;;14.11;82.54;102915.34;5012185;28;20253;-76
2021/08/04 04:33:34;;;;;;;3.08;0.90;;;17.30;99.90;;;14.76;77.83;102899.38;4979732;28;20482;-76
2021/08/04 04:36:00;;;;;;;5.32;1.10;;;18.10;99.90;;;15.52;75.07;102915.63;4979796;28;20037;-76
2021/08/04 04:38:26;;;;;;;1.42;0.73;;;18.70;99.90;;;15.73;74.83;102888.38;4995794;28;20088;-76
2021/08/04 04:40:52;;;;;;;2.00;1.05;;;19.40;99.90;;;16.41;72.23;102912.56;4982632;28;20096;-76
2021/08/04 04:43:18;;;;;;;3.78;1.10;;;20.10;99.90;;;17.01;70.15;102953.78;4978310;28;20022;-77
2021/08/04 04:45:46;;;;;;;1.92;1.13;;;20.60;99.90;;;17.23;66.79;102915.69;4979327;28;20504;-76
2021/08/04 04:48:12;;;;;;;1.35;0.82;;;21.00;99.90;;;17.62;68.20;102931.88;4981191;28;20026;-76
2021/08/04 04:50:38;;;;;;;3.58;1.13;;;21.50;99.90;;;18.38;65.83;102968.66;4985503;28;20038;-77
2021/08/04 04:53:04;;;;;;;6.68;1.27;;;22.10;99.90;;;19.11;63.55;103022.34;4971255;28;20019;-77
2021/08/04 04:55:30;;;;;;;5.93;1.00;;;22.70;99.90;;;19.17;61.00;103271.28;4965743;28;20296;-77
2021/08/04 04:57:56;;;;;;;1.02;0.75;;;22.80;99.90;;;19.20;61.83;102957.81;4982102;28;20437;-76
2021/08/04 05:00:22;;;;;;;1.98;1.00;;;23.20;99.90;;;19.77;61.78;102942.56;4991680;28;20085;-77
2021/08/04 05:02:48;;;;;;;1.98;1.08;;;23.70;99.90;;;20.31;60.99;102971.91;4993805;28;20030;-76
2021/08/04 05:05:14;;;;;;;1.27;0.98;;;24.30;99.90;;;20.88;59.61;102982.28;4983957;28;20107;-76
2021/08/04 05:07:40;;;;;;;1.55;0.90;;;24.80;99.90;;;21.27;57.96;102984.56;4975131;28;20040;-76
2021/08/04 05:10:07;;;;;;;6.07;1.02;;;24.90;99.90;;;20.74;59.16;102899.19;4984654;28;20390;-75
2021/08/04 05:12:33;;;;;;;5.45;1.35;;;24.90;99.90;;;20.74;58.78;102883.13;4998752;28;20382;-74
2021/08/04 05:14:59;;;;;;;2.00;1.05;;;25.00;99.90;;;21.26;58.62;102872.97;5036253;28;20050;-74
2021/08/04 05:17:25;;;;;;;2.28;1.20;;;25.50;99.90;;;22.13;56.15;103145.94;4967785;28;20113;-74
2021/08/04 05:19:51;;;;;;;2.20;1.10;;;26.20;99.90;;;22.62;56.12;103042.03;4984848;28;20081;-74
2021/08/04 05:22:18;;;;;;;2.80;1.30;;;26.30;99.90;;;22.75;55.69;102948.16;5009316;28;20040;-75
2021/08/04 05:24:44;;;;;;;2.45;1.10;;;26.80;99.90;;;23.11;55.91;102915.41;4996208;28;20033;-74
2021/08/04 05:27:10;;;;;;;3.03;1.10;;;27.30;99.20;;;23.95;52.61;102947.44;4983612;28;20034;-75
2021/08/04 05:29:36;;;;;;;2.85;1.00;;;28.20;97.60;;;24.56;50.37;102920.75;5014651;28;20104;-74
2021/08/04 05:32:03;;;;;;;7.82;1.10;;;28.10;97.50;;;24.40;50.73;102876.16;5016274;28;20042;-74
2021/08/04 05:34:29;;;;;;;1.80;1.05;;;28.10;96.30;;;24.29;49.74;102867.00;4968360;28;20037;-74
2021/08/04 05:36:55;;;;;;;2.45;1.00;;;28.30;96.00;;;24.61;48.67;103704.25;4982581;28;20383;-75
2021/08/04 05:39:21;;;;;;;1.98;1.00;;;28.40;96.00;;;25.24;46.70;103365.22;5016102;28;20030;-74
2021/08/04 05:41:46;;;;;;;4.32;0.82;;;28.50;95.20;;;24.70;47.65;103193.66;4985326;28;20105;-74
2021/08/04 05:44:12;;;;;;;1.73;0.73;;;28.20;94.90;;;24.35;48.50;103049.63;4991844;28;20113;-74
2021/08/04 05:46:38;;;;;;;1.02;0.85;;;27.90;94.80;;;23.26;49.68;102849.00;5000122;28;20464;-74
2021/08/04 05:49:04;;;;;;;3.10;0.80;;;27.80;95.50;;;24.64;47.98;102911.25;5000127;28;20489;-74
2021/08/04 05:51:30;;;;;;;1.67;1.00;;;28.00;95.70;;;25.74;46.05;102934.56;4982586;28;20088;-74
2021/08/04 05:53:56;;;;;;;2.55;0.90;;;28.70;95.30;;;25.71;45.81;102892.47;4984288;28;20035;-74
2021/08/04 05:56:22;;;;;;;4.15;0.90;;;29.00;93.20;;;25.76;44.36;102905.63;4983687;28;20027;-74
2021/08/04 05:58:48;;;;;;;1.63;0.90;;;28.80;92.90;;;25.85;43.07;102883.31;5014743;28;20037;-74
2021/08/04 06:01:14;;;;;;;1.23;0.63;;;28.90;92.20;;;26.32;41.57;102886.81;5016332;28;20033;-76
2021/08/04 06:03:40;;;;;;;1.77;0.57;;;28.90;90.90;;;25.32;40.93;102750.78;4981458;28;20478;-74
2021/08/04 06:06:06;;;;;;;1.33;0.68;;;28.70;92.80;;;25.00;44.63;102710.97;5000044;28;20033;-74
2021/08/04 06:08:32;;;;;;;1.38;0.70;;;28.40;92.50;;;25.88;43.40;102804.84;5014643;28;20036;-74
2021/08/04 06:10:58;;;;;;;5.32;0.90;;;28.60;92.20;;;25.69;43.30;102734.41;4982968;28;20022;-74
2021/08/04 06:13:24;;;;;;;0.85;0.70;;;28.70;93.00;;;26.52;42.69;102809.59;4982598;28;20022;-74
2021/08/04 06:15:53;;;;;;;3.25;0.73;;;29.20;90.50;;;26.62;38.93;102839.44;4997873;28;20117;-74
2021/08/04 06:18:20;;;;;;;3.03;0.90;;;29.10;90.10;;;26.71;39.46;102876.50;5013978;28;20038;-74
2021/08/04 06:20:47;;;;;;;1.40;0.60;;;29.20;90.80;;;26.81;40.03;102803.66;5019387;28;20034;-75
2021/08/04 06:23:13;;;;;;;1.55;0.70;;;29.40;89.40;;;25.01;42.27;102577.97;5009331;28;20097;-74
2021/08/04 06:25:39;;;;;;;1.33;0.70;;;28.30;90.60;;;23.88;44.85;102512.97;4999284;28;20022;-74
2021/08/04 06:28:05;;;;;;;1.63;0.65;;;27.80;91.20;;;24.54;43.72;102571.75;4979399;28;20042;-74
2021/08/04 06:30:31;;;;;;;2.67;0.90;;;27.70;90.80;;;23.52;45.24;102476.22;4982274;28;20038;-75
2021/08/04 06:32:57;;;;;;;3.75;0.70;;;27.10;92.20;;;23.91;44.59;102501.16;5011414;28;20157;-75
2021/08/04 06:35:24;;;;;;;1.15;0.70;;;27.00;93.10;;;23.98;45.46;102477.34;5006369;28;20394;-74
2021/08/04 06:37:50;;;;;;;1.83;0.70;;;26.50;92.40;;;23.54;46.64;102477.84;4990229;28;20053;-74
2021/08/04 06:40:18;;;;;;;1.27;0.82;;;26.90;92.50;;;25.15;42.74;102615.44;5013231;28;20152;-77
2021/08/04 06:42:44;;;;;;;1.75;0.50;;;27.80;91.20;;;26.51;40.37;102662.00;4988774;28;20108;-77
2021/08/04 06:45:11;;;;;;;0.85;0.82;;;27.70;91.90;;;25.70;41.67;102541.88;5023039;28;20034;-77
2021/08/04 06:47:37;;;;;;;1.20;0.75;;;27.50;92.50;;;24.69;46.42;102435.91;4975667;28;20096;-77
2021/08/04 06:50:03;;;;;;;3.47;0.70;;;27.60;92.10;;;24.46;45.35;102418.81;5004360;28;20494;-77
2021/08/04 06:52:30;;;;;;;1.50;0.52;;;27.40;93.30;;;25.53;43.07;102536.06;4999411;28;20034;-77
2021/08/04 06:54:56;;;;;;;1.20;0.80;;;27.80;91.70;;;24.35;44.30;102355.06;5006098;28;20394;-76
2021/08/04 06:57:22;;;;;;;0.77;0.60;;;26.90;92.10;;;22.89;46.61;102256.03;4981325;28;20031;-74
2021/08/04 06:59:48;;;;;;;1.65;0.80;;;26.40;92.40;;;24.13;44.15;102396.28;5001344;28;20033;-74
2021/08/04 07:02:14;;;;;;;2.65;1.20;;;26.60;92.40;;;24.43;44.27;102413.69;5001441;28;20044;-74
2021/08/04 07:04:40;;;;;;;1.52;0.80;;;27.30;91.80;;;26.21;39.53;102543.94;4984536;28;20440;-75
2021/08/04 07:07:06;;;;;;;1.05;0.80;;;27.60;92.00;;;25.89;42.01;102528.59;5032358;28;20117;-75
2021/08/04 07:09:34;;;;;;;1.23;0.70;;;28.30;89.40;;;25.34;41.11;102396.50;5024359;28;20026;-74
2021/08/04 07:12:01;;;;;;;1.88;0.80;;;27.80;90.60;;;24.20;43.90;102296.22;4999166;28;20087;-74
2021/08/04 07:14:27;;;;;;;0.90;0.60;;;26.60;91.80;;;24.00;45.11;102313.97;4967210;28;20025;-74
2021/08/04 07:16:53;;;;;;;1.85;0.80;;;27.10;92.00;;;26.30;40.88;102524.25;4982279;28;20061;-74
2021/08/04 07:19:19;;;;;;;2.85;0.95;;;27.50;92.00;;;25.33;43.50;102596.13;4964191;28;20030;-74
2021/08/04 07:21:46;;;;;;;0.98;0.60;;;27.50;89.70;;;24.68;41.03;102473.72;4988769;28;20037;-75
2021/08/04 07:24:12;;;;;;;2.75;0.80;;;27.00;90.90;;;24.31;41.92;102363.50;5001468;28;20026;-74
2021/08/04 07:26:41;;;;;;;1.88;0.57;;;27.80;91.90;;;26.14;41.40;102540.06;4998234;28;20041;-75
2021/08/04 07:29:07;;;;;;;0.65;0.65;;;27.80;90.40;;;27.06;38.34;102561.81;5014991;28;20065;-74
2021/08/04 07:31:35;;;;;;;2.92;0.70;;;28.30;89.00;;;27.47;36.29;102591.63;4997102;28;20105;-75
2021/08/04 07:34:02;;;;;;;1.40;0.85;;;28.80;88.30;;;27.40;35.40;102686.00;5014688;28;20063;-75
2021/08/04 07:36:28;;;;;;;0.90;0.80;;;28.50;88.40;;;27.19;37.83;102673.34;5017298;28;20120;-74
2021/08/04 07:38:54;;;;;;;0.65;0.57;;;28.40;88.00;;;24.95;40.63;102422.16;4980464;28;20076;-74
2021/08/04 07:41:20;;;;;;;1.92;0.90;;;27.60;89.40;;;26.10;38.52;102534.03;4982931;28;20433;-75
2021/08/04 07:43:49;;;;;;;1.13;0.75;;;27.80;87.80;;;25.78;39.80;102463.88;4980932;28;21489;-74
2021/08/04 07:46:22;;;;;;;2.00;0.80;;;28.00;87.20;;;28.01;35.00;102614.72;4971765;28;20473;-75
2021/08/04 07:48:49;;;;;;;2.85;0.70;;;28.20;86.20;;;25.08;39.69;102303.44;4997418;28;20034;-75
2021/08/04 07:51:16;;;;;;;1.80;0.90;;;27.40;88.20;;;24.87;39.28;102314.16;4988167;28;20022;-74
2021/08/04 07:53:43;;;;;;;0.85;0.63;;;27.30;88.40;;;26.21;37.32;102473.75;4986353;28;20023;-74
2021/08/04 07:56:10;;;;;;;2.50;1.02;;;27.80;86.80;;;27.97;34.61;102605.16;4981941;28;20033;-75
2021/08/04 07:58:36;;;;;;;1.02;0.70;;;28.80;84.40;;;29.35;31.50;103083.25;4996535;28;20072;-75
2021/08/04 08:01:02;;;;;;;2.38;0.90;;;28.90;83.30;;;29.36;30.86;102780.22;5029702;28;20024;-75
2021/08/04 08:03:28;;;;;;;2.25;0.90;;;29.10;81.90;;;29.79;29.52;102869.28;4994310;28;20023;-75
2021/08/04 08:05:54;;;;;;;3.30;0.75;;;29.30;84.20;;;28.07;31.88;102600.59;5018203;28;20037;-75
2021/08/04 08:08:20;;;;;;;1.88;0.80;;;28.90;83.00;;;27.61;33.20;102513.63;5028465;28;20041;-74
2021/08/04 08:10:49;;;;;;;2.35;1.00;;;27.60;84.20;;;25.23;37.03;102288.72;4998582;28;20032;-75
2021/08/04 08:13:15;;;;;;;1.58;0.90;;;26.70;86.40;;;23.92;40.76;102204.25;4998431;28;20080;-74
2021/08/04 08:15:42;;;;;;;3.08;0.90;;;26.00;88.80;;;24.63;38.79;102263.16;4998590;28;20037;-74
2021/08/04 08:18:09;;;;;;;1.48;0.75;;;25.30;89.50;;;23.57;40.50;102137.13;5015064;28;20057;-74
2021/08/04 08:20:38;;;;;;;6.07;0.90;;;24.10;90.80;;;22.11;42.98;102029.19;4997930;28;20028;-74
2021/08/04 08:23:05;;;;;;;0.98;0.75;;;23.00;93.00;;;21.73;45.44;102034.72;5004674;28;20026;-75
2021/08/04 08:25:31;;;;;;;1.98;0.90;;;22.80;93.90;;;22.31;44.78;102110.91;4999203;28;20022;-74
2021/08/04 08:27:59;;;;;;;1.02;0.90;;;23.00;93.30;;;22.50;43.59;102686.59;4993899;28;20069;-74
2021/08/04 08:30:26;;;;;;;2.15;0.90;;;23.20;93.60;;;23.31;42.42;102446.41;5030700;28;20045;-74
2021/08/04 08:32:53;;;;;;;1.15;0.80;;;24.30;93.10;;;24.13;41.19;102407.03;5005819;28;20025;-75
2021/08/04 08:35:20;;;;;;;1.83;0.88;;;25.00;91.30;;;24.92;39.19;102476.28;5003524;28;20125;-74
2021/08/04 08:37:48;;;;;;;1.13;0.80;;;25.70;91.30;;;25.53;38.11;102481.25;4975836;28;20041;-74
2021/08/04 08:40:16;;;;;;;1.48;0.63;;;25.90;90.10;;;23.89;39.59;102267.25;5005994;28;20367;-74
2021/08/04 08:42:44;;;;;;;3.35;0.73;;;25.20;90.80;;;23.43;43.70;102311.09;5011370;28;20049;-74
2021/08/04 08:45:11;;;;;;;2.92;1.27;;;24.80;91.50;;;22.39;44.38;102174.72;4982316;28;20501;-74
2021/08/04 08:47:43;;;;;;;1.30;0.80;;;24.00;92.30;;;22.38;44.09;102213.28;4984360;28;20084;-74
2021/08/04 08:50:12;;;;;;;1.17;0.77;;;23.40;93.20;;;22.13;45.12;102171.25;4982484;28;20023;-75
2021/08/04 08:52:39;;;;;;;3.30;1.00;;;23.20;92.90;;;21.45;46.41;102106.41;4974657;28;20391;-74
2021/08/04 08:55:08;;;;;;;2.85;0.75;;;22.60;94.00;;;21.20;47.38;102085.78;4981066;28;20022;-74
2021/08/04 08:57:34;;;;;;;1.38;0.90;;;22.40;94.50;;;21.12;48.25;102082.78;4986131;28;20494;-76
2021/08/04 09:00:01;;;;;;;6.55;0.85;;;22.40;95.20;;;20.94;49.57;102058.16;4975109;28;20031;-77
2021/08/04 09:02:32;;;;;;;0.80;0.80;;;22.20;95.90;;;21.10;49.44;102108.81;4969430;28;20121;-77
2021/08/04 09:05:06;;;;;;;2.65;0.90;;;22.30;94.70;;;21.27;46.27;102113.88;4993190;28;20406;-77
2021/08/04 09:07:46;;;;;;;1.35;0.70;;;22.20;94.10;;;20.99;46.85;102079.25;4936472;28;20042;-77
2021/08/04 09:10:34;;;;;;;1.90;0.90;;;22.20;95.30;;;21.05;46.98;102101.09;5006152;28;20047;-77
2021/08/04 09:13:07;;;;;;;2.80;0.90;;;22.50;95.00;;;21.90;45.79;102179.13;4959481;28;20045;-76
2021/08/04 09:15:48;;;;;;;1.98;0.73;;;23.00;93.40;;;22.40;43.56;102208.66;4945942;28;20116;-76
2021/08/04 09:18:55;;;;;;;0.98;0.68;;;23.70;94.60;;;22.90;45.30;102217.44;4986303;28;20042;-76
2021/08/04 09:21:30;;;;;;;1.60;0.68;;;23.70;92.90;;;22.59;45.30;102177.75;4982361;28;20042;-77
2021/08/04 09:24:05;;;;;;;1.27;0.70;;;23.90;93.90;;;22.83;44.49;102209.97;4952416;28;20092;-76
2021/08/04 09:27:02;;;;;;;1.08;0.70;;;24.10;93.30;;;23.17;44.88;102227.09;4949374;28;20058;-77
2021/08/04 09:30:26;;;;;;;2.60;1.83;;;24.40;93.50;;;23.37;43.44;102219.31;4960442;28;20050;-77
2021/08/04 09:33:25;;;;;;;3.92;0.80;;;24.60;93.50;;;24.26;42.88;102425.78;4966426;28;20508;-77
2021/08/04 09:36:00;;;;;;;0.80;0.70;;;24.90;92.30;;;23.74;42.28;102263.03;4973989;28;20099;-76
2021/08/04 09:38:26;;;;;;;1.35;0.60;;;24.70;91.70;;;23.99;41.44;102255.75;4964470;28;20129;-77
2021/08/04 09:41:29;;;;;;;0.95;0.80;;;24.70;92.40;;;23.87;41.65;102220.78;4985672;28;20527;-77
2021/08/04 09:44:30;;;;;;;0.68;0.57;;;24.80;92.10;;;23.88;40.48;102529.13;4979003;28;20107;-77
2021/08/04 09:47:28;;;;;;;2.80;0.90;;;24.70;93.50;;;23.47;42.50;102464.94;4988911;28;20037;-76
2021/08/04 09:50:09;;;;;;;1.92;0.85;;;24.60;92.50;;;23.52;43.27;102435.88;4936475;28;20044;-76
2021/08/04 09:53:01;;;;;;;2.50;0.80;;;24.50;92.20;;;23.54;43.70;102402.56;4960804;28;20477;-76
2021/08/04 09:55:40;;;;;;;2.22;0.60;;;24.40;92.80;;;23.59;41.85;102285.75;4991011;28;20057;-78
2021/08/04 09:58:30;;;;;;;1.42;0.52;;;24.70;92.30;;;24.14;40.83;102270.66;5000195;28;20038;-76
2021/08/04 10:01:08;;;;;;;1.33;0.80;;;24.80;92.30;;;23.76;41.83;102242.28;4959609;28;20057;-77
2021/08/04 10:04:04;;;;;;;1.63;0.55;;;24.80;91.70;;;23.30;41.52;102184.00;4951738;28;20056;-77
2021/08/04 10:06:33;;;;;;;1.50;0.90;;;24.00;91.60;;;22.13;43.44;102120.28;4927278;28;20049;-77
2021/08/04 10:09:26;;;;;;;0.88;0.52;;;23.50;93.30;;;22.16;45.91;102136.16;4943338;28;20076;-76
2021/08/04 10:12:20;;;;;;;1.23;0.60;;;23.30;94.20;;;22.29;45.60;102123.59;4964590;28;20045;-76
2021/08/04 10:15:12;;;;;;;2.03;0.80;;;23.00;92.20;;;21.31;44.57;102042.19;4958865;28;20517;-77
2021/08/04 10:17:39;;;;;;;1.25;0.50;;;22.50;93.50;;;21.00;46.99;102022.94;4954485;28;20037;-77
2021/08/04 10:20:17;;;;;;;2.67;0.73;;;22.30;93.40;;;21.15;45.52;102039.75;4949615;28;20721;-77
2021/08/04 10:23:17;;;;;;;4.18;1.17;;;22.20;94.40;;;20.87;48.19;101998.00;4970296;28;20043;-76
2021/08/04 10:25:48;;;;;;;1.60;0.70;;;22.10;94.50;;;20.63;47.96;101973.78;5000508;28;20055;-77
2021/08/04 10:28:17;;;;;;;2.40;0.77;;;21.80;95.00;;;20.40;47.99;102248.19;5013439;28;20401;-77